Station: Rottnest Island  

  Atmospheric Gas Attenuation - ITU Rec 676-11   ----------------- dB/100km -----------------
Date Time Temp RH % AH g/m3 Dew Point Wind Direction Speed kph Gust kph Barometer mB Rainfall Since 9am 24GHz 47GHz 76GHz 122GHz 134GHz 241GHz
08/05 20:20 19.3 48 7.96 8 17 20 1026.1 0 18.0 23.9 35.3 92.4 84.9 291.7
08/05 20:10 19.5 47 7.89 7.9 24 30 1026 0 17.8 23.7 35.0 91.5 83.8 288.0
08/05 20:00 19.5 48 8.06 8.2 22 32 1026 0 18.2 23.9 35.6 93.1 85.9 295.2
08/05 19:50 19.7 47 7.98 8.1 24 28 1025.9 0 18.0 23.8 35.2 92.1 84.7 291.1
08/05 19:40 19.8 46 7.86 7.9 28 35 1025.9 0 17.7 23.6 34.7 90.8 83.2 285.7
08/05 19:30 20 46 7.95 8 28 39 1025.8 0 17.9 23.6 35.0 91.5 84.0 288.7
08/05 19:20 20.2 46 8.04 8.2 28 32 1025.8 0 18.1 23.7 35.2 92.1 84.9 291.8
08/05 19:10 19.9 48 8.25 8.6 22 26 1025.8 0 18.5 24.1 36.1 94.5 87.7 301.8
08/05 19:00 20 49 8.47 9 24 33 1025.8 0 19.0 24.4 36.9 96.6 90.3 310.7
08/05 18:50 20 49 8.47 9 20 28 1025.9 0 19.0 24.4 36.9 96.6 90.3 310.8
08/05 18:40 20.2 47 8.22 8.5 20 24 1025.9 0 18.5 24.0 35.9 93.9 87.0 299.4
08/05 18:30 20.3 47 8.27 8.6 24 33 1025.9 0 18.6 24.0 36.0 94.3 87.5 301.1
08/05 18:20 20.5 46 8.18 8.5 26 32 1025.8 0 18.4 23.9 35.6 93.1 86.2 296.6
08/05 18:10 20.4 48 8.49 9 20 24 1025.7 0 19.0 24.3 36.8 96.3 90.1 310.0
08/05 18:00 20.3 48 8.44 8.9 20 26 1025.7 0 18.9 24.3 36.6 95.9 89.6 308.3
08/05 17:50 20.5 47 8.36 8.8 22 26 1025.6 0 18.8 24.1 36.2 94.9 88.4 304.1
08/05 17:40 20.6 48 8.59 9.2 22 26 1025.6 0 19.2 24.4 37.0 97.0 91.1 313.5
08/05 17:30 20.8 47 8.51 9.1 22 28 1025.5 0 19.1 24.3 36.7 96.0 89.8 309.3
08/05 17:20 20.8 50 9.05 10 19 24 1025.4 0 20.2 25.1 38.6 101.3 96.4 332.3
08/05 17:10 21.2 46 8.52 9.1 22 26 1025.3 0 19.1 24.2 36.5 95.6 89.5 308.1
08/05 17:00 21.3 46 8.57 9.2 22 30 1025.3 0 19.2 24.2 36.6 95.9 90.0 309.9
08/05 16:50 21.5 44 8.3 8.7 24 28 1025.3 0 18.6 23.8 35.6 93.1 86.5 297.8
08/05 16:40 21.6 45 8.53 9.2 20 24 1025.2 0 19.1 24.1 36.4 95.2 89.2 307.0
08/05 16:30 21.8 43 8.25 8.7 24 35 1025.3 0 18.5 23.6 35.3 92.3 85.6 294.6
08/05 16:20 21.9 44 8.49 9.1 22 26 1025.2 0 19.0 23.9 36.1 94.5 88.4 304.2
08/05 16:10 21.9 43 8.3 8.8 24 26 1025.2 0 18.6 23.6 35.4 92.6 86.1 296.3
08/05 16:00 22.1 44 8.59 9.3 20 33 1025.3 0 19.2 24.0 36.4 95.2 89.3 307.6
08/05 15:50 22 43 8.34 8.9 24 30 1025.3 0 18.6 23.7 35.5 92.9 86.5 297.6
08/05 15:40 21.9 44 8.49 9.1 24 30 1025.2 0 19.0 23.9 36.1 94.5 88.4 304.2
08/05 15:30 21.9 45 8.68 9.4 20 28 1025.3 0 19.4 24.2 36.8 96.3 90.6 312.2
08/05 15:20 21.9 43 8.3 8.8 24 28 1025.2 0 18.6 23.6 35.4 92.6 86.1 296.3
08/05 15:10 22 45 8.73 9.5 24 30 1025.3 0 19.5 24.3 36.9 96.7 91.1 313.9
08/05 15:00 21.8 46 8.82 9.7 19 26 1025.3 0 19.7 24.4 37.3 97.8 92.4 318.4
08/05 14:50 21.8 45 8.63 9.3 19 26 1025.4 0 19.3 24.2 36.6 96.0 90.2 310.5
08/05 14:40 21.4 48 9 9.9 20 26 1025.4 0 20.1 24.8 38.2 100.1 95.1 327.7
08/05 14:30 21.4 47 8.81 9.6 19 28 1025.5 0 19.7 24.5 37.5 98.2 92.8 319.7
08/05 14:20 21.6 47 8.91 9.8 15 22 1025.6 0 19.9 24.6 37.8 98.9 93.8 323.1
08/05 14:10 21.6 47 8.91 9.8 13 17 1025.7 0 19.9 24.6 37.8 99.0 93.8 323.2
08/05 14:00 21.6 47 8.91 9.8 19 28 1025.9 0 19.9 24.6 37.8 99.0 93.8 323.2
08/05 13:50 21.4 47 8.81 9.6 19 22 1026.1 0 19.7 24.6 37.5 98.3 92.8 319.8
08/05 13:40 21.4 48 9 9.9 13 17 1026.2 0 20.1 24.8 38.2 100.1 95.1 327.9
08/05 13:30 21.1 46 8.47 9 20 28 1026.4 0 19.0 24.1 36.4 95.3 89.1 306.7
08/05 13:20 21.2 45 8.34 8.8 24 28 1026.4 0 18.7 23.9 35.9 93.9 87.4 300.9
08/05 13:10 20.9 47 8.56 9.2 22 28 1026.6 0 19.2 24.3 36.8 96.5 90.4 311.3
08/05 13:00 21.1 47 8.66 9.4 22 32 1026.8 0 19.4 24.4 37.1 97.2 91.4 314.8
08/05 12:50 20.4 48 8.49 9 22 30 1026.9 0 19.0 24.4 36.8 96.4 90.2 310.3
08/05 12:40 20.2 47 8.22 8.5 28 32 1027.1 0 18.5 24.0 35.9 94.0 87.1 299.7
08/05 12:30 20.2 47 8.22 8.5 26 35 1027.2 0 18.5 24.0 35.9 94.0 87.1 299.7
08/05 12:20 20.1 48 8.34 8.8 30 35 1027.2 0 18.7 24.2 36.4 95.3 88.7 305.2
08/05 12:10 19.8 49 8.37 8.8 32 35 1027.4 0 18.8 24.4 36.7 96.0 89.4 307.6
08/05 12:00 20 51 8.81 9.6 28 39 1027.6 0 19.7 25.0 38.2 100.1 94.6 325.8
08/05 11:50 19.6 50 8.44 8.9 28 35 1027.8 0 19.0 24.6 37.0 96.9 90.5 311.5
08/05 11:40 19.8 52 8.88 9.7 24 30 1028.1 0 19.9 25.2 38.6 101.1 95.7 329.8
08/05 11:30 19.3 49 8.13 8.3 28 39 1028.3 0 18.3 24.2 36.0 94.3 87.1 299.5
08/05 11:20 19.7 52 8.83 9.6 20 28 1028.4 0 19.8 25.1 38.5 100.8 95.3 328.1
08/05 11:10 19.3 52 8.62 9.2 26 33 1028.5 0 19.4 24.9 37.9 99.2 93.1 320.6
08/05 11:00 18.9 52 8.42 8.8 30 43 1028.7 0 18.9 24.7 37.3 97.7 91.2 313.6
08/05 10:50 19.1 51 8.36 8.7 30 39 1028.7 0 18.8 24.6 37.0 96.8 90.2 310.2
08/05 10:40 18.8 51 8.21 8.5 37 46 1028.8 0 18.5 24.5 36.6 95.7 88.7 304.9
08/05 10:30 18.7 52 8.32 8.7 32 43 1028.9 0 18.7 24.7 37.0 96.9 90.2 310.1
08/05 10:20 18.7 51 8.16 8.4 35 43 1028.9 0 18.4 24.4 36.4 95.3 88.2 303.2
08/05 10:10 18.5 52 8.23 8.5 32 39 1029 0 18.6 24.6 36.8 96.3 89.3 307.0
08/05 10:00 18.4 53 8.34 8.7 33 44 1029.2 0 18.8 24.8 37.3 97.5 90.8 312.2
08/05 09:50 18.2 56 8.7 9.3 32 39 1029.2 0 19.6 25.4 38.7 101.4 95.5 328.8
08/05 09:40 18 57 8.75 9.4 28 33 1029.2 0 19.7 25.5 39.0 102.2 96.4 331.8
08/05 09:30 17.7 57 8.6 9.1 28 37 1029.4 0 19.4 25.4 38.6 101.1 94.9 326.5
08/05 09:20 17.5 57 8.5 8.9 26 37 1029.4 0 19.2 25.3 38.3 100.3 93.8 322.9
08/05 09:10 17.3 58 8.54 9 26 37 1029.5 0 19.3 25.4 38.6 101.0 94.6 325.5
08/05 09:00 17 56 8.1 8.2 28 41 1029.7 0 18.4 24.8 37.0 96.8 89.4 307.2
08/05 08:50 16.8 59 8.43 8.8 22 33 1029.7 0 19.1 25.4 38.4 100.5 93.8 322.7
08/05 08:40 16.9 58 8.34 8.6 30 33 1029.7 0 18.9 25.2 38.0 99.4 92.6 318.2
08/05 08:30 16.7 58 8.24 8.4 32 41 1029.8 0 18.7 25.1 37.7 98.6 91.5 314.6
08/05 08:20 16.6 57 8.05 8.1 28 39 1029.7 0 18.3 24.8 37.0 96.8 89.2 306.6
08/05 08:10 16.6 58 8.19 8.3 26 33 1029.6 0 18.6 25.1 37.5 98.2 91.0 312.7
08/05 08:00 16.6 59 8.33 8.6 28 41 1029.7 0 18.9 25.3 38.1 99.7 92.8 319.0
08/05 07:50 16.5 58 8.14 8.2 30 35 1029.5 0 18.5 25.0 37.4 97.8 90.5 310.9
08/05 07:40 16.4 57 7.96 7.9 33 41 1029.3 0 18.1 24.7 36.7 96.1 88.3 303.3
08/05 07:30 16.2 59 8.14 8.2 30 44 1029.3 0 18.5 25.1 37.5 98.2 90.8 312.0
08/05 07:20 16.2 58 8 7.9 37 43 1029 0 18.2 24.8 37.0 96.7 89.0 305.7
08/05 07:10 16.1 60 8.22 8.3 30 35 1029 0 18.7 25.2 37.9 99.1 91.9 315.9
08/05 07:00 15.9 60 8.13 8.2 28 37 1029 0 18.5 25.1 37.6 98.4 91.0 312.7
08/05 06:50 15.8 61 8.21 8.3 20 26 1028.9 0 18.6 25.3 38.0 99.4 92.1 316.6
08/05 06:40 16 60 8.17 8.2 26 32 1028.8 0 18.6 25.2 37.7 98.7 91.4 314.0
08/05 06:30 16.2 58 8 7.9 30 43 1028.8 0 18.2 24.8 37.0 96.7 89.0 305.7
08/05 06:20 16.4 57 7.96 7.9 33 41 1028.7 0 18.1 24.7 36.7 96.0 88.3 303.1
08/05 06:10 16.4 57 7.96 7.9 37 46 1028.6 0 18.1 24.7 36.7 96.0 88.2 303.1
08/05 06:00 16.3 58 8.05 8 28 37 1028.8 0 18.3 24.9 37.1 97.1 89.5 307.5
08/05 05:50 16.4 58 8.09 8.1 30 39 1028.7 0 18.4 24.9 37.2 97.4 89.9 308.9
08/05 05:40 16.2 60 8.27 8.4 22 28 1028.8 0 18.8 25.3 38.0 99.5 92.4 317.7
08/05 05:30 16.3 60 8.32 8.5 24 33 1028.9 0 18.9 25.3 38.2 99.9 92.9 319.5
08/05 05:20 16.8 57 8.15 8.2 28 33 1028.7 0 18.5 24.9 37.3 97.5 90.2 310.0
08/05 05:10 17 57 8.25 8.4 30 32 1028.6 0 18.7 25.0 37.5 98.3 91.2 313.6
08/05 05:00 16.9 56 8.05 8.1 32 43 1028.7 0 18.3 24.7 36.8 96.4 88.8 305.2
08/05 04:50 17 56 8.1 8.2 32 35 1028.5 0 18.4 24.8 37.0 96.7 89.3 306.9
08/05 04:40 17 57 8.25 8.4 26 32 1028.5 0 18.7 25.0 37.5 98.3 91.2 313.6
08/05 04:30 17 56 8.1 8.2 28 39 1028.6 0 18.4 24.8 37.0 96.7 89.3 307.0
08/05 04:20 16.8 57 8.15 8.2 24 28 1028.5 0 18.5 24.9 37.3 97.5 90.2 309.9
08/05 04:10 16.9 56 8.05 8.1 28 35 1028.5 0 18.3 24.7 36.8 96.3 88.8 305.1
08/05 04:00 16.7 57 8.1 8.1 26 35 1028.4 0 18.4 24.8 37.1 97.1 89.7 308.1
08/05 03:50 16.7 58 8.24 8.4 20 24 1028.4 0 18.7 25.1 37.6 98.5 91.4 314.3

Last Refresh: 08-May-2026 21:53:52

Bureau of Meteorology